createdAt,value
2023-04-01T00:04:48.020Z,86.56
2023-04-01T00:11:49.730Z,87.94
2023-04-01T00:18:51.569Z,87.35
2023-04-01T00:25:53.297Z,87.79
2023-04-01T00:32:54.910Z,87.79
2023-04-01T00:39:56.579Z,86.99
2023-04-01T00:46:58.355Z,87.48
2023-04-01T00:54:00.225Z,87.71
2023-04-01T01:01:01.891Z,87.62
2023-04-01T01:08:18.648Z,87.54
2023-04-01T01:15:28.117Z,87.24
2023-04-01T01:22:44.847Z,87.73
2023-04-01T01:30:08.734Z,88.03
2023-04-01T01:37:13.053Z,88.08
2023-04-01T01:44:14.758Z,88.49
2023-04-01T01:51:16.498Z,88.37
2023-04-01T01:58:25.580Z,88.25
2023-04-01T02:05:28.019Z,87.68
2023-04-01T02:12:35.892Z,86.99
2023-04-01T02:19:40.067Z,88.02
2023-04-01T02:26:41.944Z,88.16
2023-04-01T02:33:43.530Z,87.90
2023-04-01T02:40:50.538Z,87.99
2023-04-01T02:47:52.123Z,88.40
2023-04-01T02:54:54.124Z,88.71
2023-04-01T03:01:56.062Z,89.35
2023-04-01T03:08:57.772Z,89.27
2023-04-01T03:15:59.726Z,89.23
2023-04-01T03:23:01.391Z,89.10
2023-04-01T03:30:07.270Z,89.21
2023-04-01T03:37:15.534Z,89.23
2023-04-01T03:44:17.122Z,89.11
2023-04-01T03:51:21.478Z,88.08
2023-04-01T03:58:23.203Z,88.08
2023-04-01T04:05:26.001Z,88.19
2023-04-01T04:12:27.704Z,88.11
2023-04-01T04:19:34.760Z,88.10
2023-04-01T04:26:37.070Z,87.21
2023-04-01T04:33:38.745Z,87.67
2023-04-01T04:40:41.125Z,86.99
2023-04-01T04:47:42.873Z,87.46
2023-04-01T04:54:45.090Z,87.82
2023-04-01T05:01:47.051Z,88.25
2023-04-01T05:08:49.172Z,88.18
2023-04-01T05:15:50.933Z,88.48
2023-04-01T05:22:57.101Z,88.66
2023-04-01T05:29:58.968Z,88.23
2023-04-01T05:37:39.079Z,87.74
2023-04-01T05:44:40.801Z,87.83
2023-04-01T05:51:42.338Z,88.40
2023-04-01T05:58:44.557Z,88.08
2023-04-01T06:05:46.315Z,88.03
2023-04-01T06:12:58.415Z,87.69
2023-04-01T06:20:26.734Z,87.93
2023-04-01T06:27:47.308Z,88.06
2023-04-01T06:35:02.068Z,88.48
2023-04-01T06:42:15.630Z,87.30
2023-04-01T06:49:51.542Z,87.88
2023-04-01T06:57:31.190Z,89.10
2023-04-01T07:04:35.717Z,88.79
2023-04-01T07:11:38.520Z,88.63
2023-04-01T07:19:17.520Z,89.25
2023-04-01T07:26:36.412Z,88.83
2023-04-01T07:33:59.048Z,89.30
2023-04-01T07:41:13.625Z,89.64
2023-04-01T07:48:32.679Z,89.97
2023-04-01T07:55:46.686Z,91.20
2023-04-01T08:02:52.860Z,90.55
2023-04-01T08:10:33.684Z,90.64
2023-04-01T08:18:15.433Z,91.82
2023-04-01T08:25:27.943Z,91.91
2023-04-01T08:32:35.405Z,89.73
2023-04-01T08:39:39.446Z,92.04
2023-04-01T08:46:59.850Z,93.17
2023-04-01T08:54:18.300Z,91.17
2023-04-01T09:01:47.720Z,91.89
2023-04-01T09:09:39.830Z,93.26
2023-04-01T09:17:08.939Z,93.96
2023-04-01T09:24:24.582Z,91.95
2023-04-01T09:31:53.883Z,90.57
2023-04-01T09:39:38.350Z,91.93
2023-04-01T09:47:07.311Z,91.36
2023-04-01T09:54:36.086Z,93.77
2023-04-01T10:01:53.656Z,91.38
2023-04-01T10:09:21.868Z,90.25
2023-04-01T10:16:41.507Z,91.30
2023-04-01T10:24:07.530Z,90.64
2023-04-01T10:31:21.935Z,91.13
2023-04-01T10:38:51.273Z,90.39
2023-04-01T10:46:36.482Z,88.39
2023-04-01T10:53:47.061Z,90.25
2023-04-01T11:01:17.414Z,89.01
2023-04-01T11:09:10.323Z,87.10
2023-04-01T11:16:31.128Z,89.60
2023-04-01T11:24:11.762Z,88.03
2023-04-01T11:32:01.924Z,89.39
2023-04-01T11:39:11.375Z,83.69
2023-04-01T11:46:59.667Z,83.83
2023-04-01T11:54:36.352Z,85.64
2023-04-01T12:01:44.054Z,87.59
2023-04-01T12:08:57.785Z,86.21
2023-04-01T12:16:35.132Z,87.16
2023-04-01T12:24:13.363Z,85.79
2023-04-01T12:31:29.696Z,87.84
2023-04-01T12:39:21.240Z,86.67
2023-04-01T12:46:43.796Z,87.63
2023-04-01T12:54:27.099Z,86.40
2023-04-01T13:02:14.901Z,85.41
2023-04-01T13:09:25.909Z,85.00
2023-04-01T13:16:32.210Z,84.62
2023-04-01T13:24:01.676Z,85.69
2023-04-01T13:31:06.830Z,83.99
2023-04-01T13:38:40.626Z,82.83
2023-04-01T13:45:55.344Z,84.94
2023-04-01T13:53:18.703Z,84.77
2023-04-01T14:00:45.404Z,86.79
2023-04-01T14:08:17.241Z,85.77
2023-04-01T14:15:48.814Z,86.89
2023-04-01T14:23:05.774Z,85.03
2023-04-01T14:30:31.819Z,82.85
2023-04-01T14:37:56.859Z,81.73
2023-04-01T14:45:36.489Z,83.56
2023-04-01T14:52:40.455Z,83.20
2023-04-01T15:00:03.447Z,82.95
2023-04-01T15:07:12.241Z,80.75
2023-04-01T15:14:19.298Z,81.54
2023-04-01T15:21:26.475Z,82.17
2023-04-01T15:28:34.424Z,82.28
2023-04-01T15:35:47.849Z,82.99
2023-04-01T15:43:00.623Z,81.34
2023-04-01T15:50:11.441Z,82.72
2023-04-01T15:57:15.921Z,80.42
2023-04-01T16:05:07.298Z,80.72
2023-04-01T16:12:27.130Z,81.44
2023-04-01T16:20:08.817Z,81.53
2023-04-01T16:27:14.860Z,80.37
2023-04-01T16:34:23.323Z,80.85
2023-04-01T16:41:42.400Z,80.31
2023-04-01T16:49:04.073Z,79.10
2023-04-01T16:56:11.797Z,80.09
2023-04-01T17:03:24.746Z,80.35
2023-04-01T17:10:44.425Z,79.04
2023-04-01T17:18:10.336Z,79.83
2023-04-01T17:25:21.749Z,81.34
2023-04-01T17:32:42.715Z,81.27
2023-04-01T17:40:16.651Z,80.45
2023-04-01T17:47:38.923Z,81.95
2023-04-01T17:54:58.940Z,79.72
2023-04-01T18:02:18.856Z,78.57
2023-04-01T18:09:38.332Z,77.01
2023-04-01T18:16:39.792Z,80.86
2023-04-01T18:24:02.246Z,81.26
2023-04-01T18:31:04.255Z,81.52
2023-04-01T18:38:21.104Z,78.36
2023-04-01T18:45:32.789Z,82.62
2023-04-01T18:52:38.754Z,79.75
2023-04-01T18:59:45.388Z,78.34
2023-04-01T19:06:55.576Z,79.22
2023-04-01T19:14:24.786Z,79.51
2023-04-01T19:21:39.946Z,81.11
2023-04-01T19:29:19.375Z,81.54
2023-04-01T19:36:41.161Z,82.09
2023-04-01T19:44:05.322Z,81.32
2023-04-01T19:51:26.553Z,83.09
2023-04-01T19:58:49.307Z,81.62
2023-04-01T20:06:17.721Z,82.11
2023-04-01T20:13:38.035Z,80.31
2023-04-01T20:20:39.577Z,80.81
2023-04-01T20:27:45.216Z,80.39
2023-04-01T20:35:08.634Z,81.40
2023-04-01T20:42:23.412Z,83.23
2023-04-01T20:50:01.414Z,78.05
2023-04-01T20:57:15.037Z,80.68
2023-04-01T21:04:37.594Z,82.44
2023-04-01T21:11:47.119Z,80.27
2023-04-01T21:19:09.521Z,78.95
2023-04-01T21:26:23.207Z,78.32
2023-04-01T21:33:30.828Z,77.47
2023-04-01T21:40:54.378Z,76.67
2023-04-01T21:48:33.425Z,76.06
2023-04-01T21:56:08.773Z,75.73
2023-04-01T22:03:39.828Z,75.94
2023-04-01T22:11:10.428Z,75.23
2023-04-01T22:18:23.713Z,73.55
2023-04-01T22:25:40.823Z,74.33
2023-04-01T22:32:47.921Z,74.11
2023-04-01T22:40:12.387Z,73.97
2023-04-01T22:47:37.740Z,72.73
2023-04-01T22:54:51.934Z,73.35
2023-04-01T23:01:59.760Z,72.41
2023-04-01T23:09:29.438Z,72.69
2023-04-01T23:16:38.091Z,72.38
2023-04-01T23:23:54.110Z,71.44
2023-04-01T23:30:55.748Z,72.18
2023-04-01T23:37:57.396Z,71.17
2023-04-01T23:45:00.426Z,70.71
2023-04-01T23:52:14.509Z,70.13
2023-04-01T23:59:23.359Z,70.18
